sensor_id;sensor_type;location;lat;lon;timestamp;temperature;humidity
48488;DHT22;34289;48.572;13.378;2023-05-07T00:01:24;10.00;99.90
48488;DHT22;34289;48.572;13.378;2023-05-07T00:03:50;10.10;99.90
48488;DHT22;34289;48.572;13.378;2023-05-07T00:06:15;10.10;99.90
48488;DHT22;34289;48.572;13.378;2023-05-07T00:08:41;9.80;99.90
48488;DHT22;34289;48.572;13.378;2023-05-07T00:11:06;9.80;99.90
48488;DHT22;34289;48.572;13.378;2023-05-07T00:13:32;9.80;99.90
48488;DHT22;34289;48.572;13.378;2023-05-07T00:16:01;9.70;99.90
48488;DHT22;34289;48.572;13.378;2023-05-07T00:18:27;9.50;99.90
48488;DHT22;34289;48.572;13.378;2023-05-07T00:20:53;9.60;99.90
48488;DHT22;34289;48.572;13.378;2023-05-07T00:23:19;9.40;99.90
48488;DHT22;34289;48.572;13.378;2023-05-07T00:25:44;9.60;99.90
48488;DHT22;34289;48.572;13.378;2023-05-07T00:28:10;9.50;99.90
48488;DHT22;34289;48.572;13.378;2023-05-07T00:30:36;9.50;99.90
48488;DHT22;34289;48.572;13.378;2023-05-07T00:33:01;9.50;99.90
48488;DHT22;34289;48.572;13.378;2023-05-07T00:35:28;9.20;99.90
48488;DHT22;34289;48.572;13.378;2023-05-07T00:37:54;9.30;99.90
48488;DHT22;34289;48.572;13.378;2023-05-07T00:40:20;9.30;99.90
48488;DHT22;34289;48.572;13.378;2023-05-07T00:42:46;9.60;99.90
48488;DHT22;34289;48.572;13.378;2023-05-07T00:45:13;9.30;99.90
48488;DHT22;34289;48.572;13.378;2023-05-07T00:47:39;9.60;99.90
48488;DHT22;34289;48.572;13.378;2023-05-07T00:50:05;9.60;99.90
48488;DHT22;34289;48.572;13.378;2023-05-07T00:52:31;9.60;99.90
48488;DHT22;34289;48.572;13.378;2023-05-07T00:54:57;9.50;99.90
48488;DHT22;34289;48.572;13.378;2023-05-07T00:57:24;9.40;99.90
48488;DHT22;34289;48.572;13.378;2023-05-07T00:59:51;9.50;99.90
48488;DHT22;34289;48.572;13.378;2023-05-07T01:02:17;9.20;99.90
48488;DHT22;34289;48.572;13.378;2023-05-07T01:04:43;9.10;99.90
48488;DHT22;34289;48.572;13.378;2023-05-07T01:07:08;9.00;99.90
48488;DHT22;34289;48.572;13.378;2023-05-07T01:09:34;9.00;99.90
48488;DHT22;34289;48.572;13.378;2023-05-07T01:12:01;8.90;99.90
48488;DHT22;34289;48.572;13.378;2023-05-07T01:14:27;8.80;99.90
48488;DHT22;34289;48.572;13.378;2023-05-07T01:16:53;9.00;99.90
48488;DHT22;34289;48.572;13.378;2023-05-07T01:19:19;9.50;99.90
48488;DHT22;34289;48.572;13.378;2023-05-07T01:21:47;9.40;99.90
48488;DHT22;34289;48.572;13.378;2023-05-07T01:24:14;9.10;99.90
48488;DHT22;34289;48.572;13.378;2023-05-07T01:26:41;9.00;99.90
48488;DHT22;34289;48.572;13.378;2023-05-07T01:29:06;9.20;99.90
48488;DHT22;34289;48.572;13.378;2023-05-07T01:31:34;9.30;99.90
48488;DHT22;34289;48.572;13.378;2023-05-07T01:34:02;9.20;99.90
48488;DHT22;34289;48.572;13.378;2023-05-07T01:36:29;9.20;99.90
48488;DHT22;34289;48.572;13.378;2023-05-07T01:38:55;9.20;99.90
48488;DHT22;34289;48.572;13.378;2023-05-07T01:41:23;9.30;99.90
48488;DHT22;34289;48.572;13.378;2023-05-07T01:43:51;9.30;99.90
48488;DHT22;34289;48.572;13.378;2023-05-07T01:46:17;9.40;99.90
48488;DHT22;34289;48.572;13.378;2023-05-07T01:48:45;9.10;99.90
48488;DHT22;34289;48.572;13.378;2023-05-07T01:51:11;9.10;99.90
48488;DHT22;34289;48.572;13.378;2023-05-07T01:53:38;9.10;99.90
48488;DHT22;34289;48.572;13.378;2023-05-07T01:56:04;9.10;99.90
48488;DHT22;34289;48.572;13.378;2023-05-07T01:58:30;9.10;99.90
48488;DHT22;34289;48.572;13.378;2023-05-07T02:00:56;9.10;99.90
48488;DHT22;34289;48.572;13.378;2023-05-07T02:03:22;9.20;99.90
48488;DHT22;34289;48.572;13.378;2023-05-07T02:05:47;8.90;99.90
48488;DHT22;34289;48.572;13.378;2023-05-07T02:08:13;9.00;99.90
48488;DHT22;34289;48.572;13.378;2023-05-07T02:10:38;9.00;99.90
48488;DHT22;34289;48.572;13.378;2023-05-07T02:13:04;8.80;99.90
48488;DHT22;34289;48.572;13.378;2023-05-07T02:15:30;9.00;99.90
48488;DHT22;34289;48.572;13.378;2023-05-07T02:18:04;8.70;99.90
48488;DHT22;34289;48.572;13.378;2023-05-07T02:20:30;8.70;99.90
48488;DHT22;34289;48.572;13.378;2023-05-07T02:22:55;8.70;99.90
48488;DHT22;34289;48.572;13.378;2023-05-07T02:25:21;9.10;99.90
48488;DHT22;34289;48.572;13.378;2023-05-07T02:27:47;9.10;99.90
48488;DHT22;34289;48.572;13.378;2023-05-07T02:30:13;8.90;99.90
48488;DHT22;34289;48.572;13.378;2023-05-07T02:32:38;9.00;99.90
48488;DHT22;34289;48.572;13.378;2023-05-07T02:35:05;8.90;99.90
48488;DHT22;34289;48.572;13.378;2023-05-07T02:37:30;8.90;99.90
48488;DHT22;34289;48.572;13.378;2023-05-07T02:39:56;9.00;99.90
48488;DHT22;34289;48.572;13.378;2023-05-07T02:42:21;8.90;99.90
48488;DHT22;34289;48.572;13.378;2023-05-07T02:44:47;8.80;99.90
48488;DHT22;34289;48.572;13.378;2023-05-07T02:47:14;8.80;99.90
48488;DHT22;34289;48.572;13.378;2023-05-07T02:49:40;8.80;99.90
48488;DHT22;34289;48.572;13.378;2023-05-07T02:52:06;8.80;99.90
48488;DHT22;34289;48.572;13.378;2023-05-07T02:54:31;8.80;99.90
48488;DHT22;34289;48.572;13.378;2023-05-07T02:56:57;8.70;99.90
48488;DHT22;34289;48.572;13.378;2023-05-07T02:59:23;8.80;99.90
48488;DHT22;34289;48.572;13.378;2023-05-07T03:01:50;8.70;99.90
48488;DHT22;34289;48.572;13.378;2023-05-07T03:04:16;8.70;99.90
48488;DHT22;34289;48.572;13.378;2023-05-07T03:06:41;8.60;99.90
48488;DHT22;34289;48.572;13.378;2023-05-07T03:09:07;8.60;99.90
48488;DHT22;34289;48.572;13.378;2023-05-07T03:11:33;8.60;99.90
48488;DHT22;34289;48.572;13.378;2023-05-07T03:13:58;8.70;99.90
48488;DHT22;34289;48.572;13.378;2023-05-07T03:16:24;8.80;99.90
48488;DHT22;34289;48.572;13.378;2023-05-07T03:18:49;8.70;99.90
48488;DHT22;34289;48.572;13.378;2023-05-07T03:21:15;8.60;99.90
48488;DHT22;34289;48.572;13.378;2023-05-07T03:23:40;8.60;99.90
48488;DHT22;34289;48.572;13.378;2023-05-07T03:26:06;8.60;99.90
48488;DHT22;34289;48.572;13.378;2023-05-07T03:28:32;8.50;99.90
48488;DHT22;34289;48.572;13.378;2023-05-07T03:30:57;8.50;99.90
48488;DHT22;34289;48.572;13.378;2023-05-07T03:33:23;8.40;99.90
48488;DHT22;34289;48.572;13.378;2023-05-07T03:35:49;8.40;99.90
48488;DHT22;34289;48.572;13.378;2023-05-07T03:38:14;8.40;99.90
48488;DHT22;34289;48.572;13.378;2023-05-07T03:40:40;8.30;99.90
48488;DHT22;34289;48.572;13.378;2023-05-07T03:43:06;8.50;99.90
48488;DHT22;34289;48.572;13.378;2023-05-07T03:45:31;8.50;99.90
48488;DHT22;34289;48.572;13.378;2023-05-07T03:47:57;8.50;99.90
48488;DHT22;34289;48.572;13.378;2023-05-07T03:50:22;8.50;99.90
48488;DHT22;34289;48.572;13.378;2023-05-07T03:52:48;8.50;99.90
48488;DHT22;34289;48.572;13.378;2023-05-07T03:55:14;8.60;99.90
48488;DHT22;34289;48.572;13.378;2023-05-07T03:57:39;8.60;99.90
48488;DHT22;34289;48.572;13.378;2023-05-07T04:00:05;8.50;99.90
48488;DHT22;34289;48.572;13.378;2023-05-07T04:02:33;8.70;99.90
48488;DHT22;34289;48.572;13.378;2023-05-07T04:04:59;9.10;99.90
48488;DHT22;34289;48.572;13.378;2023-05-07T04:07:24;8.90;99.90
48488;DHT22;34289;48.572;13.378;2023-05-07T04:09:50;9.10;99.90
48488;DHT22;34289;48.572;13.378;2023-05-07T04:12:16;9.00;99.90
48488;DHT22;34289;48.572;13.378;2023-05-07T04:14:41;9.10;99.90
48488;DHT22;34289;48.572;13.378;2023-05-07T04:17:07;9.20;99.90
48488;DHT22;34289;48.572;13.378;2023-05-07T04:19:35;9.40;99.90
48488;DHT22;34289;48.572;13.378;2023-05-07T04:22:00;9.40;99.90
48488;DHT22;34289;48.572;13.378;2023-05-07T04:24:26;9.40;99.90
48488;DHT22;34289;48.572;13.378;2023-05-07T04:26:52;9.20;99.90
48488;DHT22;34289;48.572;13.378;2023-05-07T04:29:18;9.10;99.90
48488;DHT22;34289;48.572;13.378;2023-05-07T04:31:44;9.50;99.90
48488;DHT22;34289;48.572;13.378;2023-05-07T04:34:10;9.80;99.90
48488;DHT22;34289;48.572;13.378;2023-05-07T04:36:38;10.30;99.90
48488;DHT22;34289;48.572;13.378;2023-05-07T04:39:03;11.50;99.90
48488;DHT22;34289;48.572;13.378;2023-05-07T04:41:29;12.70;99.90
48488;DHT22;34289;48.572;13.378;2023-05-07T04:43:55;13.60;99.90
48488;DHT22;34289;48.572;13.378;2023-05-07T04:46:22;14.70;99.90
48488;DHT22;34289;48.572;13.378;2023-05-07T04:48:49;15.80;99.90
48488;DHT22;34289;48.572;13.378;2023-05-07T04:51:15;16.70;99.90
48488;DHT22;34289;48.572;13.378;2023-05-07T04:53:40;16.70;99.90
48488;DHT22;34289;48.572;13.378;2023-05-07T04:56:06;16.10;99.90
48488;DHT22;34289;48.572;13.378;2023-05-07T04:58:32;16.30;99.90
48488;DHT22;34289;48.572;13.378;2023-05-07T05:00:58;16.50;99.90
48488;DHT22;34289;48.572;13.378;2023-05-07T05:03:24;17.50;99.90
48488;DHT22;34289;48.572;13.378;2023-05-07T05:05:51;18.60;99.90
48488;DHT22;34289;48.572;13.378;2023-05-07T05:08:17;19.70;99.90
48488;DHT22;34289;48.572;13.378;2023-05-07T05:10:43;20.00;99.90
48488;DHT22;34289;48.572;13.378;2023-05-07T05:13:09;18.70;99.90
48488;DHT22;34289;48.572;13.378;2023-05-07T05:15:35;17.70;99.90
48488;DHT22;34289;48.572;13.378;2023-05-07T05:18:01;16.80;99.90
48488;DHT22;34289;48.572;13.378;2023-05-07T05:20:26;16.40;99.90
48488;DHT22;34289;48.572;13.378;2023-05-07T05:22:52;15.90;99.90
48488;DHT22;34289;48.572;13.378;2023-05-07T05:25:17;15.20;99.90
48488;DHT22;34289;48.572;13.378;2023-05-07T05:27:43;14.60;99.90
48488;DHT22;34289;48.572;13.378;2023-05-07T05:30:09;14.20;99.90
48488;DHT22;34289;48.572;13.378;2023-05-07T05:32:35;14.40;99.90
48488;DHT22;34289;48.572;13.378;2023-05-07T05:35:00;14.90;99.90
48488;DHT22;34289;48.572;13.378;2023-05-07T05:37:26;15.60;99.90
48488;DHT22;34289;48.572;13.378;2023-05-07T05:39:52;16.80;99.90
48488;DHT22;34289;48.572;13.378;2023-05-07T05:42:20;18.70;99.90
48488;DHT22;34289;48.572;13.378;2023-05-07T05:44:45;21.00;99.90
48488;DHT22;34289;48.572;13.378;2023-05-07T05:47:11;22.40;99.90
48488;DHT22;34289;48.572;13.378;2023-05-07T05:49:36;23.90;99.90
48488;DHT22;34289;48.572;13.378;2023-05-07T05:52:02;25.90;99.90
48488;DHT22;34289;48.572;13.378;2023-05-07T05:54:28;27.40;98.50
48488;DHT22;34289;48.572;13.378;2023-05-07T05:56:54;27.80;96.80
48488;DHT22;34289;48.572;13.378;2023-05-07T05:59:19;28.00;96.20
48488;DHT22;34289;48.572;13.378;2023-05-07T06:01:45;28.30;96.30
48488;DHT22;34289;48.572;13.378;2023-05-07T06:04:11;28.90;95.80
48488;DHT22;34289;48.572;13.378;2023-05-07T06:06:36;29.50;99.90
48488;DHT22;34289;48.572;13.378;2023-05-07T06:09:02;29.40;93.40
48488;DHT22;34289;48.572;13.378;2023-05-07T06:11:28;27.40;97.20
48488;DHT22;34289;48.572;13.378;2023-05-07T06:13:54;27.30;94.50
48488;DHT22;34289;48.572;13.378;2023-05-07T06:16:19;25.10;97.60
48488;DHT22;34289;48.572;13.378;2023-05-07T06:18:45;23.50;99.90
48488;DHT22;34289;48.572;13.378;2023-05-07T06:21:13;21.60;99.90
48488;DHT22;34289;48.572;13.378;2023-05-07T06:23:38;20.20;99.90
48488;DHT22;34289;48.572;13.378;2023-05-07T06:26:06;19.10;99.90
48488;DHT22;34289;48.572;13.378;2023-05-07T06:28:31;18.20;99.90
48488;DHT22;34289;48.572;13.378;2023-05-07T06:31:21;17.80;99.90
48488;DHT22;34289;48.572;13.378;2023-05-07T06:33:47;17.40;99.90
48488;DHT22;34289;48.572;13.378;2023-05-07T06:36:13;17.10;99.90
48488;DHT22;34289;48.572;13.378;2023-05-07T06:38:39;16.80;99.90
48488;DHT22;34289;48.572;13.378;2023-05-07T06:41:06;16.90;99.90
48488;DHT22;34289;48.572;13.378;2023-05-07T06:43:32;17.10;99.90
48488;DHT22;34289;48.572;13.378;2023-05-07T06:45:57;17.50;99.90
48488;DHT22;34289;48.572;13.378;2023-05-07T06:48:23;17.80;99.90
48488;DHT22;34289;48.572;13.378;2023-05-07T06:50:50;17.70;99.90
48488;DHT22;34289;48.572;13.378;2023-05-07T06:53:15;17.70;99.90
48488;DHT22;34289;48.572;13.378;2023-05-07T06:55:41;17.90;99.90
48488;DHT22;34289;48.572;13.378;2023-05-07T06:58:07;17.80;99.90
48488;DHT22;34289;48.572;13.378;2023-05-07T07:00:33;18.10;99.90
48488;DHT22;34289;48.572;13.378;2023-05-07T07:02:58;18.20;99.90
48488;DHT22;34289;48.572;13.378;2023-05-07T07:07:50;18.00;99.90
48488;DHT22;34289;48.572;13.378;2023-05-07T07:10:20;18.20;99.90
48488;DHT22;34289;48.572;13.378;2023-05-07T07:12:45;18.50;99.90
48488;DHT22;34289;48.572;13.378;2023-05-07T07:15:11;18.70;99.90
48488;DHT22;34289;48.572;13.378;2023-05-07T07:17:37;18.40;99.90
48488;DHT22;34289;48.572;13.378;2023-05-07T07:20:03;18.20;99.90
48488;DHT22;34289;48.572;13.378;2023-05-07T07:22:29;18.10;99.90
48488;DHT22;34289;48.572;13.378;2023-05-07T07:24:54;18.00;99.90
48488;DHT22;34289;48.572;13.378;2023-05-07T07:27:20;18.00;99.90
48488;DHT22;34289;48.572;13.378;2023-05-07T07:29:45;17.90;99.90
48488;DHT22;34289;48.572;13.378;2023-05-07T07:32:11;17.90;99.90
48488;DHT22;34289;48.572;13.378;2023-05-07T07:34:37;18.20;99.90
48488;DHT22;34289;48.572;13.378;2023-05-07T07:37:02;18.30;99.90
48488;DHT22;34289;48.572;13.378;2023-05-07T07:39:33;18.50;99.90
48488;DHT22;34289;48.572;13.378;2023-05-07T07:41:59;18.80;99.90
48488;DHT22;34289;48.572;13.378;2023-05-07T07:44:25;19.10;99.90
48488;DHT22;34289;48.572;13.378;2023-05-07T07:46:51;19.30;99.90
48488;DHT22;34289;48.572;13.378;2023-05-07T07:49:17;19.50;99.90
48488;DHT22;34289;48.572;13.378;2023-05-07T07:51:42;19.80;99.90
48488;DHT22;34289;48.572;13.378;2023-05-07T07:54:08;19.60;99.90
48488;DHT22;34289;48.572;13.378;2023-05-07T07:56:34;19.70;99.90
48488;DHT22;34289;48.572;13.378;2023-05-07T07:59:00;19.70;99.90
48488;DHT22;34289;48.572;13.378;2023-05-07T08:01:26;19.50;99.90
48488;DHT22;34289;48.572;13.378;2023-05-07T08:03:52;19.50;99.90
48488;DHT22;34289;48.572;13.378;2023-05-07T08:06:17;19.40;99.90
48488;DHT22;34289;48.572;13.378;2023-05-07T08:08:43;19.60;99.90
48488;DHT22;34289;48.572;13.378;2023-05-07T08:11:09;19.90;99.90
48488;DHT22;34289;48.572;13.378;2023-05-07T08:13:35;19.90;99.90
48488;DHT22;34289;48.572;13.378;2023-05-07T08:16:01;19.80;99.90
48488;DHT22;34289;48.572;13.378;2023-05-07T08:18:28;19.90;99.90
48488;DHT22;34289;48.572;13.378;2023-05-07T08:20:56;20.00;99.90
48488;DHT22;34289;48.572;13.378;2023-05-07T08:23:22;20.30;99.90
48488;DHT22;34289;48.572;13.378;2023-05-07T08:25:49;20.40;99.90
48488;DHT22;34289;48.572;13.378;2023-05-07T08:28:15;20.60;99.90
48488;DHT22;34289;48.572;13.378;2023-05-07T08:30:40;21.00;99.90
48488;DHT22;34289;48.572;13.378;2023-05-07T08:33:08;21.30;99.90
48488;DHT22;34289;48.572;13.378;2023-05-07T08:35:33;21.60;99.90
48488;DHT22;34289;48.572;13.378;2023-05-07T08:37:59;21.50;99.90
48488;DHT22;34289;48.572;13.378;2023-05-07T08:40:25;21.50;99.90
48488;DHT22;34289;48.572;13.378;2023-05-07T08:42:52;21.90;99.90
48488;DHT22;34289;48.572;13.378;2023-05-07T08:45:19;22.10;99.90
48488;DHT22;34289;48.572;13.378;2023-05-07T08:47:51;22.10;99.90
48488;DHT22;34289;48.572;13.378;2023-05-07T08:50:18;22.10;99.90
48488;DHT22;34289;48.572;13.378;2023-05-07T08:52:44;21.90;99.90
48488;DHT22;34289;48.572;13.378;2023-05-07T08:55:10;21.60;99.90
48488;DHT22;34289;48.572;13.378;2023-05-07T08:57:36;21.60;99.90
48488;DHT22;34289;48.572;13.378;2023-05-07T09:00:03;21.40;99.90
48488;DHT22;34289;48.572;13.378;2023-05-07T09:02:29;20.80;99.90
48488;DHT22;34289;48.572;13.378;2023-05-07T09:04:55;20.50;99.90
48488;DHT22;34289;48.572;13.378;2023-05-07T09:07:21;20.30;99.90
48488;DHT22;34289;48.572;13.378;2023-05-07T09:09:47;20.30;99.90
48488;DHT22;34289;48.572;13.378;2023-05-07T09:12:13;20.80;99.90
48488;DHT22;34289;48.572;13.378;2023-05-07T09:14:39;20.90;99.90
48488;DHT22;34289;48.572;13.378;2023-05-07T09:17:05;20.60;99.90
48488;DHT22;34289;48.572;13.378;2023-05-07T09:19:30;20.60;99.90
48488;DHT22;34289;48.572;13.378;2023-05-07T09:22:03;20.70;99.90
48488;DHT22;34289;48.572;13.378;2023-05-07T09:24:30;20.60;99.90
48488;DHT22;34289;48.572;13.378;2023-05-07T09:27:01;20.60;99.90
48488;DHT22;34289;48.572;13.378;2023-05-07T09:29:28;21.10;99.90
48488;DHT22;34289;48.572;13.378;2023-05-07T09:32:07;21.70;99.90
48488;DHT22;34289;48.572;13.378;2023-05-07T09:34:32;21.80;99.90
48488;DHT22;34289;48.572;13.378;2023-05-07T09:37:05;21.60;99.90
48488;DHT22;34289;48.572;13.378;2023-05-07T09:39:41;21.60;99.90
48488;DHT22;34289;48.572;13.378;2023-05-07T09:42:07;21.60;99.90
48488;DHT22;34289;48.572;13.378;2023-05-07T09:44:33;21.50;99.90
48488;DHT22;34289;48.572;13.378;2023-05-07T09:47:00;21.40;99.90
48488;DHT22;34289;48.572;13.378;2023-05-07T09:49:28;21.90;99.90
48488;DHT22;34289;48.572;13.378;2023-05-07T09:51:55;22.00;99.90
48488;DHT22;34289;48.572;13.378;2023-05-07T09:54:22;22.20;99.90
48488;DHT22;34289;48.572;13.378;2023-05-07T09:56:52;22.00;99.90
48488;DHT22;34289;48.572;13.378;2023-05-07T09:59:18;21.90;99.90
48488;DHT22;34289;48.572;13.378;2023-05-07T10:01:45;21.80;99.90
48488;DHT22;34289;48.572;13.378;2023-05-07T10:04:11;21.80;99.90
48488;DHT22;34289;48.572;13.378;2023-05-07T10:06:38;21.60;99.90
48488;DHT22;34289;48.572;13.378;2023-05-07T10:09:04;21.40;99.90
48488;DHT22;34289;48.572;13.378;2023-05-07T10:11:35;21.70;99.90
48488;DHT22;34289;48.572;13.378;2023-05-07T10:14:02;22.20;99.90
48488;DHT22;34289;48.572;13.378;2023-05-07T10:16:31;22.60;99.90
48488;DHT22;34289;48.572;13.378;2023-05-07T10:18:58;22.90;99.90
48488;DHT22;34289;48.572;13.378;2023-05-07T10:21:27;22.80;99.90
48488;DHT22;34289;48.572;13.378;2023-05-07T10:24:11;22.50;99.90
48488;DHT22;34289;48.572;13.378;2023-05-07T10:26:44;22.10;99.90
48488;DHT22;34289;48.572;13.378;2023-05-07T10:34:43;21.90;99.90
48488;DHT22;34289;48.572;13.378;2023-05-07T10:37:11;22.30;99.90
48488;DHT22;34289;48.572;13.378;2023-05-07T10:39:37;21.90;99.90
48488;DHT22;34289;48.572;13.378;2023-05-07T10:42:10;21.60;99.90
48488;DHT22;34289;48.572;13.378;2023-05-07T10:44:36;21.40;99.90
48488;DHT22;34289;48.572;13.378;2023-05-07T10:47:13;21.80;99.90
48488;DHT22;34289;48.572;13.378;2023-05-07T10:52:15;22.30;99.90
48488;DHT22;34289;48.572;13.378;2023-05-07T10:54:42;22.30;99.90
48488;DHT22;34289;48.572;13.378;2023-05-07T10:59:56;22.10;99.90
48488;DHT22;34289;48.572;13.378;2023-05-07T11:02:22;22.30;99.90
48488;DHT22;34289;48.572;13.378;2023-05-07T11:05:19;22.50;99.90
48488;DHT22;34289;48.572;13.378;2023-05-07T11:07:54;22.60;99.90
48488;DHT22;34289;48.572;13.378;2023-05-07T11:10:20;22.80;99.90
48488;DHT22;34289;48.572;13.378;2023-05-07T11:12:50;22.70;99.90
48488;DHT22;34289;48.572;13.378;2023-05-07T11:15:34;22.50;99.90
48488;DHT22;34289;48.572;13.378;2023-05-07T11:18:00;22.90;99.90
48488;DHT22;34289;48.572;13.378;2023-05-07T11:20:57;23.00;99.90
48488;DHT22;34289;48.572;13.378;2023-05-07T11:26:09;23.30;99.90
48488;DHT22;34289;48.572;13.378;2023-05-07T11:28:42;23.10;99.90
48488;DHT22;34289;48.572;13.378;2023-05-07T11:31:09;23.10;99.90
48488;DHT22;34289;48.572;13.378;2023-05-07T11:33:36;23.00;99.90
48488;DHT22;34289;48.572;13.378;2023-05-07T11:36:05;23.00;99.90
48488;DHT22;34289;48.572;13.378;2023-05-07T11:38:34;23.00;99.90
48488;DHT22;34289;48.572;13.378;2023-05-07T11:41:00;22.90;99.90
48488;DHT22;34289;48.572;13.378;2023-05-07T11:43:26;22.80;99.90
48488;DHT22;34289;48.572;13.378;2023-05-07T11:45:52;22.80;99.90
48488;DHT22;34289;48.572;13.378;2023-05-07T11:48:18;22.90;99.90
48488;DHT22;34289;48.572;13.378;2023-05-07T11:51:00;23.80;99.90
48488;DHT22;34289;48.572;13.378;2023-05-07T11:53:26;23.20;99.90
48488;DHT22;34289;48.572;13.378;2023-05-07T11:55:53;23.40;99.90
48488;DHT22;34289;48.572;13.378;2023-05-07T11:58:23;23.50;99.90
48488;DHT22;34289;48.572;13.378;2023-05-07T12:00:50;23.50;99.90
48488;DHT22;34289;48.572;13.378;2023-05-07T12:03:16;23.40;99.90
48488;DHT22;34289;48.572;13.378;2023-05-07T12:05:43;23.40;99.90
48488;DHT22;34289;48.572;13.378;2023-05-07T12:08:22;23.70;99.90
48488;DHT22;34289;48.572;13.378;2023-05-07T12:10:50;23.70;99.90
48488;DHT22;34289;48.572;13.378;2023-05-07T12:13:23;23.40;99.90
48488;DHT22;34289;48.572;13.378;2023-05-07T12:15:54;23.20;99.90
48488;DHT22;34289;48.572;13.378;2023-05-07T12:18:20;23.00;99.90
48488;DHT22;34289;48.572;13.378;2023-05-07T12:20:46;22.90;99.90
48488;DHT22;34289;48.572;13.378;2023-05-07T12:23:13;23.10;99.90
48488;DHT22;34289;48.572;13.378;2023-05-07T12:25:39;23.20;99.90
48488;DHT22;34289;48.572;13.378;2023-05-07T12:28:07;23.70;99.90
48488;DHT22;34289;48.572;13.378;2023-05-07T12:30:39;23.30;99.90
48488;DHT22;34289;48.572;13.378;2023-05-07T12:33:05;23.00;99.90
48488;DHT22;34289;48.572;13.378;2023-05-07T12:35:32;22.90;99.90
48488;DHT22;34289;48.572;13.378;2023-05-07T12:37:59;21.90;99.90
48488;DHT22;34289;48.572;13.378;2023-05-07T12:40:38;21.30;99.90
48488;DHT22;34289;48.572;13.378;2023-05-07T12:43:04;21.10;99.90
48488;DHT22;34289;48.572;13.378;2023-05-07T12:45:30;20.90;99.90
48488;DHT22;34289;48.572;13.378;2023-05-07T12:47:56;20.80;99.90
48488;DHT22;34289;48.572;13.378;2023-05-07T12:50:26;20.70;99.90
48488;DHT22;34289;48.572;13.378;2023-05-07T12:52:56;20.70;99.90
48488;DHT22;34289;48.572;13.378;2023-05-07T12:55:21;20.50;99.90
48488;DHT22;34289;48.572;13.378;2023-05-07T12:57:50;20.40;99.90
48488;DHT22;34289;48.572;13.378;2023-05-07T13:00:17;20.50;99.90
48488;DHT22;34289;48.572;13.378;2023-05-07T13:02:44;20.50;99.90
48488;DHT22;34289;48.572;13.378;2023-05-07T13:05:10;20.60;99.90
48488;DHT22;34289;48.572;13.378;2023-05-07T13:07:36;20.60;99.90
48488;DHT22;34289;48.572;13.378;2023-05-07T13:10:03;20.50;99.90
48488;DHT22;34289;48.572;13.378;2023-05-07T13:12:30;20.40;99.90
48488;DHT22;34289;48.572;13.378;2023-05-07T13:14:56;20.30;99.90
48488;DHT22;34289;48.572;13.378;2023-05-07T13:17:21;20.40;99.90
48488;DHT22;34289;48.572;13.378;2023-05-07T13:19:47;20.60;99.90
48488;DHT22;34289;48.572;13.378;2023-05-07T13:22:12;20.90;99.90
48488;DHT22;34289;48.572;13.378;2023-05-07T13:24:38;21.00;99.90
48488;DHT22;34289;48.572;13.378;2023-05-07T13:27:06;21.00;99.90
48488;DHT22;34289;48.572;13.378;2023-05-07T13:29:32;21.10;99.90
48488;DHT22;34289;48.572;13.378;2023-05-07T13:31:58;21.20;99.90
48488;DHT22;34289;48.572;13.378;2023-05-07T13:34:23;21.30;99.90
48488;DHT22;34289;48.572;13.378;2023-05-07T13:36:49;21.40;99.90
48488;DHT22;34289;48.572;13.378;2023-05-07T13:39:15;21.50;99.90
48488;DHT22;34289;48.572;13.378;2023-05-07T13:41:41;21.60;99.90
48488;DHT22;34289;48.572;13.378;2023-05-07T13:44:07;21.60;99.90
48488;DHT22;34289;48.572;13.378;2023-05-07T13:46:32;21.60;99.90
48488;DHT22;34289;48.572;13.378;2023-05-07T13:48:58;21.60;99.90
48488;DHT22;34289;48.572;13.378;2023-05-07T13:51:24;21.70;99.90
48488;DHT22;34289;48.572;13.378;2023-05-07T13:53:49;21.80;99.90
48488;DHT22;34289;48.572;13.378;2023-05-07T13:56:15;21.90;99.90
48488;DHT22;34289;48.572;13.378;2023-05-07T13:58:41;21.90;99.90
48488;DHT22;34289;48.572;13.378;2023-05-07T14:01:07;21.10;99.90
48488;DHT22;34289;48.572;13.378;2023-05-07T14:03:32;21.80;99.90
48488;DHT22;34289;48.572;13.378;2023-05-07T14:05:59;21.80;99.90
48488;DHT22;34289;48.572;13.378;2023-05-07T14:08:26;21.80;99.90
48488;DHT22;34289;48.572;13.378;2023-05-07T14:10:52;21.80;99.90
48488;DHT22;34289;48.572;13.378;2023-05-07T14:13:18;21.80;99.90
48488;DHT22;34289;48.572;13.378;2023-05-07T14:15:43;21.70;99.90
48488;DHT22;34289;48.572;13.378;2023-05-07T14:18:12;21.60;99.90
48488;DHT22;34289;48.572;13.378;2023-05-07T14:20:38;21.50;99.90
48488;DHT22;34289;48.572;13.378;2023-05-07T14:23:04;21.50;99.90
48488;DHT22;34289;48.572;13.378;2023-05-07T14:25:30;21.40;99.90
48488;DHT22;34289;48.572;13.378;2023-05-07T14:27:55;21.30;99.90
48488;DHT22;34289;48.572;13.378;2023-05-07T14:30:21;21.40;99.90
48488;DHT22;34289;48.572;13.378;2023-05-07T14:32:50;21.60;99.90
48488;DHT22;34289;48.572;13.378;2023-05-07T14:35:16;21.70;99.90
48488;DHT22;34289;48.572;13.378;2023-05-07T14:37:41;21.70;99.90
48488;DHT22;34289;48.572;13.378;2023-05-07T14:40:08;21.70;99.90
48488;DHT22;34289;48.572;13.378;2023-05-07T14:42:33;21.60;99.90
48488;DHT22;34289;48.572;13.378;2023-05-07T14:44:59;21.60;99.90
48488;DHT22;34289;48.572;13.378;2023-05-07T14:47:25;21.60;99.90
48488;DHT22;34289;48.572;13.378;2023-05-07T14:49:50;21.60;99.90
48488;DHT22;34289;48.572;13.378;2023-05-07T14:52:16;21.60;99.90
48488;DHT22;34289;48.572;13.378;2023-05-07T14:54:42;21.70;99.90
48488;DHT22;34289;48.572;13.378;2023-05-07T14:57:08;21.80;99.90
48488;DHT22;34289;48.572;13.378;2023-05-07T14:59:35;21.90;99.90
48488;DHT22;34289;48.572;13.378;2023-05-07T15:02:01;22.10;99.90
48488;DHT22;34289;48.572;13.378;2023-05-07T15:04:27;22.10;99.90
48488;DHT22;34289;48.572;13.378;2023-05-07T15:06:52;22.10;99.90
48488;DHT22;34289;48.572;13.378;2023-05-07T15:09:21;21.90;99.90
48488;DHT22;34289;48.572;13.378;2023-05-07T15:11:47;21.80;99.90
48488;DHT22;34289;48.572;13.378;2023-05-07T15:14:12;21.60;99.90
48488;DHT22;34289;48.572;13.378;2023-05-07T15:16:38;21.60;99.90
48488;DHT22;34289;48.572;13.378;2023-05-07T15:19:03;21.60;99.90
48488;DHT22;34289;48.572;13.378;2023-05-07T15:21:29;21.70;99.90
48488;DHT22;34289;48.572;13.378;2023-05-07T15:23:56;21.70;99.90
48488;DHT22;34289;48.572;13.378;2023-05-07T15:26:21;21.60;99.90
48488;DHT22;34289;48.572;13.378;2023-05-07T15:28:47;21.50;99.90
48488;DHT22;34289;48.572;13.378;2023-05-07T15:31:13;21.60;99.90
48488;DHT22;34289;48.572;13.378;2023-05-07T15:33:38;21.70;99.90